.
WxDataArchive / Data Records for 2013-02-11
2013-02-10 February 2013 2013-02-12

Data Records for Monday, 11 February 2013

Time	Temp	Chill	HIndex	Humid	Dewpt	 Wind 	HiWind	WindDir	Rain 	Barom 
-----	----	-----	------	-----	-----	------	------	-------	-----	----- 
00:00	47.0	47.0	47.0	93	45.1	2	4	68	0.00	29.670 
00:05	47.0	47.0	47.0	93	45.1	2	5	68	0.00	29.670 
00:10	47.1	47.1	47.1	93	45.2	3	7	90	0.00	29.670 
00:15	47.1	47.1	47.1	93	45.2	1	5	90	0.00	29.664 
00:20	47.1	47.1	47.1	93	45.2	2	5	90	0.00	29.664 
00:25	47.1	47.1	47.1	93	45.2	2	6	68	0.00	29.664 
00:30	47.3	47.3	47.3	93	45.4	2	7	112	0.00	29.660 
00:35	47.3	47.3	47.3	93	45.4	2	6	90	0.00	29.660 
00:40	47.3	47.3	47.3	93	45.4	2	7	68	0.00	29.660 
00:45	47.4	47.4	47.4	93	45.5	2	5	0	0.00	29.659 
00:50	47.4	47.4	47.4	92	45.2	2	6	90	0.00	29.659 
00:55	47.4	47.4	47.4	92	45.2	2	6	90	0.00	29.659 
01:00	47.4	47.4	47.4	92	45.2	2	7	90	0.00	29.653 
01:05	47.4	47.4	47.4	92	45.2	1	6	112	0.00	29.653 
01:10	47.4	47.4	47.4	92	45.2	1	5	45	0.00	29.653 
01:15	47.4	47.4	47.4	92	45.2	1	5	90	0.00	29.649 
01:20	47.4	47.4	47.4	92	45.2	1	5	112	0.00	29.649 
01:25	47.4	47.4	47.4	92	45.2	3	6	90	0.00	29.649 
01:30	47.6	47.6	47.6	92	45.4	1	4	90	0.00	29.647 
01:35	47.6	47.6	47.6	92	45.4	1	4	270	0.00	29.647 
01:40	47.4	47.4	47.4	92	45.2	1	5	68	0.00	29.647 
01:45	47.4	47.4	47.4	92	45.2	2	5	270	0.00	29.637 
01:50	47.4	47.4	47.4	92	45.2	1	5	248	0.00	29.637 
01:55	47.6	47.6	47.6	92	45.4	1	3	68	0.00	29.637 
02:00	47.6	47.6	47.6	92	45.4	1	5	248	0.00	29.635 
02:05	47.7	47.7	47.7	92	45.5	2	6	90	0.00	29.635 
02:10	47.7	47.7	47.7	92	45.5	1	4	248	0.00	29.635 
02:15	47.7	47.7	47.7	91	45.2	0	3	248	0.00	29.633 
02:20	47.6	47.6	47.6	91	45.1	1	3	248	0.00	29.633 
02:25	47.6	47.6	47.6	91	45.1	0	4	112	0.00	29.633 
02:30	47.7	47.7	47.7	91	45.2	1	3	270	0.00	29.631 
02:35	47.7	47.7	47.7	91	45.2	1	4	315	0.00	29.631 
02:40	47.9	47.9	47.9	91	45.4	1	4	248	0.00	29.631 
02:45	47.9	47.9	47.9	91	45.4	0	3	292	0.00	29.633 
02:50	47.9	47.9	47.9	91	45.4	1	5	45	0.00	29.633 
02:55	47.7	47.7	47.7	91	45.2	1	4	248	0.00	29.633 
03:00	47.7	47.7	47.7	90	44.9	1	5	90	0.00	29.623 
03:05	47.6	47.6	47.6	90	44.8	1	4	45	0.00	29.623 
03:10	47.4	47.4	47.4	90	44.6	1	6	248	0.00	29.623 
03:15	47.3	47.3	47.3	90	44.5	1	3	248	0.00	29.621 
03:20	47.3	47.3	47.3	90	44.5	1	5	248	0.00	29.621 
03:25	47.3	47.3	47.3	90	44.5	1	4	270	0.00	29.621 
03:30	47.3	47.3	47.3	90	44.5	2	5	248	0.00	29.621 
03:35	47.3	47.3	47.3	90	44.5	1	7	248	0.00	29.621 
03:40	47.3	47.3	47.3	90	44.5	2	5	248	0.00	29.621 
03:45	47.3	47.3	47.3	90	44.5	1	5	248	0.00	29.614 
03:50	47.3	47.3	47.3	90	44.5	2	6	248	0.00	29.614 
03:55	47.3	47.3	47.3	89	44.2	2	5	248	0.00	29.614 
04:00	47.4	47.4	47.4	89	44.3	1	5	248	0.00	29.607 
04:05	47.4	47.4	47.4	89	44.3	2	7	248	0.00	29.607 
04:10	47.3	47.3	47.3	89	44.2	2	7	248	0.00	29.607 
04:15	47.1	47.1	47.1	88	43.7	3	11	248	0.01	29.606 
04:20	47.1	47.1	47.1	87	43.4	3	10	248	0.00	29.606 
04:25	47.0	47.0	47.0	84	42.4	2	6	248	0.00	29.606 
04:30	47.0	47.0	47.0	82	41.8	3	8	248	0.00	29.606 
04:35	47.1	45.5	47.1	79	40.9	4	11	248	0.00	29.606 
04:40	47.1	47.1	47.1	77	40.3	2	10	248	0.00	29.606 
04:45	47.1	47.1	47.1	76	39.9	3	7	248	0.00	29.605 
04:50	47.1	45.5	47.1	74	39.2	4	13	248	0.00	29.605 
04:55	47.3	45.8	47.3	71	38.4	4	13	248	0.00	29.605 
05:00	47.3	45.8	47.3	68	37.3	4	11	248	0.00	29.608 
05:05	47.1	47.1	47.1	65	35.9	3	7	248	0.00	29.608 
05:10	47.0	45.4	47.0	64	35.5	4	8	248	0.00	29.608 
05:15	46.8	46.8	46.8	64	35.3	3	6	248	0.00	29.623 
05:20	46.8	45.2	46.8	64	35.3	4	9	248	0.00	29.623 
05:25	46.8	44.5	46.8	63	34.9	5	14	248	0.00	29.623 
05:30	46.7	43.2	46.7	63	34.8	7	20	248	0.00	29.634 
05:35	46.4	44.0	46.4	64	34.9	5	11	270	0.00	29.634 
05:40	45.7	43.2	45.7	66	35.0	5	11	270	0.00	29.634 
05:45	44.8	41.5	44.8	65	33.8	6	13	270	0.00	29.646 
05:50	43.8	40.3	43.8	64	32.4	6	12	270	0.00	29.646 
05:55	43.1	38.9	43.1	61	30.6	7	19	248	0.00	29.646 
06:00	42.6	38.9	42.6	60	29.7	6	14	270	0.00	29.660 
06:05	42.2	39.1	42.2	61	29.7	5	11	270	0.00	29.660 
06:10	42.1	38.3	42.1	61	29.6	6	13	270	0.00	29.660 
06:15	41.9	38.0	41.9	62	29.8	6	13	270	0.00	29.663 
06:20	41.8	39.4	41.8	62	29.7	4	11	248	0.00	29.663 
06:25	41.8	39.4	41.8	63	30.1	4	12	248	0.00	29.663 
06:30	41.6	39.2	41.6	63	30.0	4	9	270	0.00	29.671 
06:35	41.5	38.2	41.5	62	29.5	5	13	248	0.00	29.671 
06:40	41.5	36.9	41.5	62	29.5	7	14	270	0.00	29.671 
06:45	41.3	36.7	41.3	62	29.3	7	17	248	0.00	29.678 
06:50	41.1	37.1	41.1	63	29.5	6	16	248	0.00	29.678 
06:55	40.9	37.5	40.9	63	29.3	5	12	270	0.00	29.678 
07:00	40.8	37.4	40.8	62	28.8	5	13	248	0.00	29.681 
07:05	40.8	36.7	40.8	62	28.8	6	13	248	0.00	29.681 
07:10	40.8	37.4	40.8	62	28.8	5	15	248	0.00	29.681 
07:15	40.6	37.2	40.6	62	28.6	5	11	248	0.00	29.678 
07:20	40.5	37.9	40.5	62	28.5	4	11	248	0.00	29.678 
07:25	40.5	37.1	40.5	63	28.9	5	11	248	0.00	29.678 
07:30	40.3	40.3	40.3	63	28.7	2	6	248	0.00	29.682 
07:35	40.3	37.7	40.3	64	29.1	4	8	270	0.00	29.682 
07:40	40.2	37.5	40.2	64	29.0	4	13	248	0.00	29.682 
07:45	39.9	36.4	39.9	63	28.3	5	14	270	0.00	29.694 
07:50	39.5	34.5	39.5	62	27.6	7	13	270	0.00	29.694 
07:55	39.2	36.4	39.2	63	27.7	4	11	248	0.00	29.694 
08:00	38.9	35.2	38.9	63	27.4	5	14	248	0.00	29.707 
08:05	38.8	35.1	38.8	64	27.7	5	12	270	0.00	29.707 
08:10	38.5	34.7	38.5	65	27.8	5	11	270	0.00	29.707 
08:15	37.9	34.0	37.9	65	27.2	5	10	270	0.00	29.708 
08:20	37.5	33.5	37.5	66	27.2	5	9	270	0.00	29.708 
08:25	37.3	34.2	37.3	67	27.4	4	10	270	0.00	29.708 
08:30	37.2	34.1	37.2	68	27.6	4	11	248	0.00	29.718 
08:35	37.0	32.9	37.0	67	27.1	5	11	248	0.00	29.718 
08:40	36.9	32.8	36.9	67	27.0	5	14	270	0.00	29.718 
08:45	36.8	33.6	36.8	67	26.9	4	8	248	0.00	29.724 
08:50	36.6	36.6	36.6	68	27.1	3	10	248	0.00	29.724 
08:55	36.8	33.6	36.8	66	26.5	4	11	248	0.00	29.724 
09:00	36.8	31.9	36.8	65	26.2	6	15	248	0.00	29.725 
09:05	36.8	33.6	36.8	64	25.8	4	12	248	0.00	29.725 
09:10	36.8	32.7	36.8	64	25.8	5	13	248	0.00	29.725 
09:15	36.6	31.0	36.6	64	25.6	7	13	248	0.00	29.725 
09:20	36.6	31.0	36.6	63	25.2	7	13	248	0.00	29.725 
09:25	36.5	31.6	36.5	63	25.1	6	14	248	0.00	29.725 
09:30	36.5	33.3	36.5	65	25.9	4	11	248	0.00	29.740 
09:35	36.2	32.9	36.2	66	26.0	4	12	270	0.00	29.740 
09:40	35.9	30.9	35.9	67	26.0	6	12	270	0.00	29.740 
09:45	35.9	31.7	35.9	67	26.0	5	15	270	0.00	29.751 
09:50	35.6	31.3	35.6	66	25.4	5	11	248	0.00	29.751 
09:55	35.5	32.1	35.5	66	25.3	4	11	248	0.00	29.751 
10:00	35.5	29.7	35.5	63	24.2	7	17	248	0.00	29.758 
10:05	35.5	29.7	35.5	62	23.8	7	14	270	0.00	29.758 
10:10	35.5	29.7	35.5	62	23.8	7	15	270	0.00	29.758 
10:15	35.5	31.2	35.5	63	24.2	5	11	270	0.00	29.755 
10:20	35.3	31.9	35.3	63	24.0	4	10	270	0.00	29.755 
10:25	35.3	31.0	35.3	63	24.0	5	13	248	0.00	29.755 
10:30	35.3	31.0	35.3	63	24.0	5	15	248	0.00	29.757 
10:35	35.3	29.5	35.3	63	24.0	7	16	248	0.00	29.757 
10:40	35.3	31.0	35.3	63	24.0	5	16	248	0.00	29.757 
10:45	35.3	31.9	35.3	65	24.7	4	11	248	0.00	29.763 
10:50	35.3	30.2	35.3	65	24.7	6	12	248	0.00	29.763 
10:55	35.3	31.0	35.3	66	25.1	5	14	248	0.00	29.763 
11:00	35.2	30.0	35.2	66	25.0	6	17	248	0.00	29.763 
11:05	35.2	35.2	35.2	66	25.0	3	9	248	0.00	29.763 
11:10	35.2	30.0	35.2	65	24.6	6	15	248	0.00	29.763 
11:15	35.3	31.0	35.3	65	24.7	5	11	248	0.00	29.762 
11:20	35.3	31.0	35.3	65	24.7	5	15	248	0.00	29.762 
11:25	35.2	30.0	35.2	64	24.3	6	16	248	0.00	29.762 
11:30	35.2	29.4	35.2	65	24.6	7	17	248	0.00	29.770 
11:35	35.0	29.8	35.0	65	24.4	6	13	248	0.00	29.770 
11:40	34.9	29.7	34.9	65	24.3	6	14	248	0.00	29.770 
11:45	34.9	29.0	34.9	65	24.3	7	20	270	0.00	29.775 
11:50	34.9	29.7	34.9	64	24.0	6	15	248	0.00	29.775 
11:55	34.9	29.0	34.9	63	23.6	7	19	270	0.00	29.775 
12:00	34.7	29.4	34.7	63	23.4	6	17	248	0.00	29.783 
12:05	34.7	29.4	34.7	63	23.4	6	14	248	0.00	29.783 
12:10	34.7	29.4	34.7	62	23.0	6	11	270	0.00	29.783 
12:15	34.7	27.6	34.7	62	23.0	9	17	270	0.00	29.779 
12:20	34.7	28.8	34.7	62	23.0	7	18	270	0.00	29.779 
12:25	34.6	29.3	34.6	62	22.9	6	13	248	0.00	29.779 
12:30	34.7	29.4	34.7	62	23.0	6	17	270	0.00	29.786 
12:35	34.7	29.4	34.7	61	22.6	6	15	248	0.00	29.786 
12:40	34.7	30.2	34.7	61	22.6	5	16	248	0.00	29.786 
12:45	34.7	29.4	34.7	61	22.6	6	13	248	0.00	29.786 
12:50	34.7	31.2	34.7	63	23.4	4	13	248	0.00	29.786 
12:55	34.7	31.2	34.7	64	23.8	4	12	248	0.00	29.786 
13:00	34.7	30.2	34.7	65	24.2	5	12	248	0.00	29.792 
13:05	34.6	29.3	34.6	66	24.4	6	15	248	0.00	29.792 
13:10	34.4	29.9	34.4	66	24.2	5	14	248	0.00	29.792 
13:15	34.4	29.9	34.4	65	23.9	5	11	248	0.00	29.796 
13:20	34.4	29.1	34.4	64	23.5	6	16	270	0.00	29.796 
13:25	34.6	29.3	34.6	63	23.3	6	16	248	0.00	29.796 
13:30	34.6	31.1	34.6	63	23.3	4	12	270	0.00	29.793 
13:35	34.6	29.3	34.6	62	22.9	6	13	270	0.00	29.793 
13:40	34.6	28.6	34.6	62	22.9	7	16	248	0.00	29.793 
13:45	34.6	30.1	34.6	63	23.3	5	14	270	0.00	29.798 
13:50	34.6	31.1	34.6	64	23.7	4	13	248	0.00	29.798 
13:55	34.6	29.3	34.6	64	23.7	6	13	248	0.00	29.798 
14:00	34.6	30.1	34.6	64	23.7	5	12	248	0.00	29.799 
14:05	34.6	30.1	34.6	64	23.7	5	14	248	0.00	29.799 
14:10	34.6	28.6	34.6	65	24.1	7	14	270	0.00	29.799 
14:15	34.7	30.2	34.7	65	24.2	5	12	248	0.00	29.803 
14:20	34.7	31.2	34.7	66	24.5	4	8	248	0.00	29.803 
14:25	34.6	31.1	34.6	66	24.4	4	12	248	0.00	29.803 
14:30	34.6	31.1	34.6	67	24.8	4	8	248	0.00	29.805 
14:35	34.6	30.1	34.6	67	24.8	5	10	248	0.00	29.805 
14:40	34.6	29.3	34.6	66	24.4	6	16	248	0.00	29.805 
14:45	34.4	28.4	34.4	65	23.9	7	13	248	0.00	29.813 
14:50	34.6	29.3	34.6	65	24.1	6	18	270	0.00	29.813 
14:55	34.6	28.6	34.6	64	23.7	7	17	270	0.00	29.813 
15:00	34.6	30.1	34.6	65	24.1	5	13	248	0.00	29.817 
15:05	34.6	30.1	34.6	65	24.1	5	12	248	0.00	29.817 
15:10	34.7	28.8	34.7	65	24.2	7	20	248	0.00	29.817 
15:15	34.7	30.2	34.7	65	24.2	5	11	248	0.00	29.818 
15:20	34.9	31.4	34.9	66	24.7	4	12	248	0.00	29.818 
15:25	35.0	29.1	35.0	65	24.4	7	18	248	0.00	29.818 
15:30	35.0	29.8	35.0	64	24.1	6	13	248	0.00	29.818 
15:35	34.9	28.4	34.9	64	24.0	8	16	248	0.00	29.818 
15:40	34.9	29.7	34.9	64	24.0	6	18	248	0.00	29.818 
15:45	34.9	29.7	34.9	65	24.3	6	12	248	0.00	29.832 
15:50	34.9	29.7	34.9	64	24.0	6	17	270	0.00	29.832 
15:55	34.7	29.4	34.7	64	23.8	6	13	248	0.00	29.832 
16:00	34.7	29.4	34.7	64	23.8	6	14	270	0.00	29.838 
16:05	34.6	29.3	34.6	64	23.7	6	12	270	0.00	29.838 
16:10	34.6	28.0	34.6	63	23.3	8	19	270	0.00	29.838 
16:15	34.4	28.4	34.4	64	23.5	7	12	248	0.00	29.847 
16:20	34.4	29.1	34.4	63	23.1	6	13	270	0.00	29.847 
16:25	34.4	30.8	34.4	64	23.5	4	11	248	0.00	29.847 
16:30	34.4	28.4	34.4	63	23.1	7	16	248	0.00	29.851 
16:35	34.4	29.9	34.4	64	23.5	5	9	248	0.00	29.851 
16:40	34.4	29.9	34.4	63	23.1	5	13	248	0.00	29.851 
16:45	34.4	29.9	34.4	63	23.1	5	15	248	0.00	29.861 
16:50	34.4	30.8	34.4	63	23.1	4	11	248	0.00	29.861 
16:55	34.3	28.3	34.3	63	23.0	7	14	248	0.00	29.861 
17:00	34.3	29.0	34.3	63	23.0	6	17	270	0.00	29.864 
17:05	34.3	30.7	34.3	64	23.4	4	14	248	0.00	29.864 
17:10	34.3	29.8	34.3	65	23.8	5	14	248	0.00	29.864 
17:15	34.3	29.8	34.3	65	23.8	5	12	248	0.00	29.870 
17:20	34.1	28.7	34.1	64	23.2	6	13	248	0.00	29.870 
17:25	34.1	28.7	34.1	64	23.2	6	15	270	0.00	29.870 
17:30	34.1	29.5	34.1	64	23.2	5	11	270	0.00	29.874 
17:35	34.0	29.4	34.0	64	23.1	5	12	248	0.00	29.874 
17:40	34.0	28.6	34.0	63	22.7	6	12	270	0.00	29.874 
17:45	34.0	28.6	34.0	63	22.7	6	14	270	0.00	29.886 
17:50	33.8	29.2	33.8	63	22.6	5	12	270	0.00	29.886 
17:55	33.8	30.2	33.8	63	22.6	4	9	270	0.00	29.886 
18:00	33.8	30.2	33.8	64	22.9	4	9	248	0.00	29.887 
18:05	33.7	30.0	33.7	65	23.2	4	10	270	0.00	29.887 
18:10	33.7	29.1	33.7	65	23.2	5	11	270	0.00	29.887 
18:15	33.7	29.1	33.7	66	23.6	5	9	270	0.00	29.893 
18:20	33.7	30.0	33.7	66	23.6	4	13	270	0.00	29.893 
18:25	33.5	29.8	33.5	67	23.7	4	10	248	0.00	29.893 
18:30	33.5	33.5	33.5	67	23.7	2	6	248	0.00	29.902 
18:35	33.5	29.8	33.5	68	24.1	4	14	248	0.00	29.902 
18:40	33.5	28.8	33.5	66	23.4	5	15	248	0.00	29.902 
18:45	33.5	28.0	33.5	66	23.4	6	13	270	0.00	29.904 
18:50	33.4	28.7	33.4	66	23.3	5	11	270	0.00	29.904 
18:55	33.4	27.9	33.4	66	23.3	6	13	270	0.00	29.904 
19:00	33.2	27.7	33.2	65	22.7	6	20	248	0.00	29.905 
19:05	33.1	28.4	33.1	65	22.6	5	10	270	0.00	29.905 
19:10	33.1	28.4	33.1	65	22.6	5	9	248	0.00	29.905 
19:15	32.9	28.1	32.9	65	22.4	5	15	248	0.00	29.910 
19:20	32.9	29.1	32.9	65	22.4	4	11	248	0.00	29.910 
19:25	32.9	28.1	32.9	65	22.4	5	15	270	0.00	29.910 
19:30	32.9	29.1	32.9	66	22.8	4	9	248	0.00	29.914 
19:35	32.9	29.1	32.9	66	22.8	4	9	248	0.00	29.914 
19:40	32.9	29.1	32.9	66	22.8	4	8	248	0.00	29.914 
19:45	32.9	29.1	32.9	66	22.8	4	9	270	0.00	29.919 
19:50	32.8	28.0	32.8	65	22.3	5	10	270	0.00	29.919 
19:55	32.7	27.9	32.7	66	22.6	5	9	248	0.00	29.919 
20:00	32.7	28.9	32.7	66	22.6	4	14	270	0.00	29.923 
20:05	32.7	28.9	32.7	66	22.6	4	11	270	0.00	29.923 
20:10	32.7	28.9	32.7	65	22.3	4	9	248	0.00	29.923 
20:15	32.7	28.9	32.7	66	22.6	4	11	248	0.00	29.929 
20:20	32.7	32.7	32.7	66	22.6	3	7	248	0.00	29.929 
20:25	32.5	28.7	32.5	66	22.4	4	14	248	0.00	29.929 
20:30	32.5	28.7	32.5	66	22.4	4	7	270	0.00	29.937 
20:35	32.5	28.7	32.5	67	22.8	4	7	248	0.00	29.937 
20:40	32.5	28.7	32.5	67	22.8	4	9	248	0.00	29.937 
20:45	32.5	28.7	32.5	67	22.8	4	11	248	0.00	29.938 
20:50	32.5	27.7	32.5	67	22.8	5	12	248	0.00	29.938 
20:55	32.5	32.5	32.5	67	22.8	3	7	270	0.00	29.938 
21:00	32.4	32.4	32.4	67	22.7	3	7	248	0.00	29.941 
21:05	32.4	32.4	32.4	68	23.0	3	6	248	0.00	29.941 
21:10	32.4	32.4	32.4	68	23.0	2	10	270	0.00	29.941 
21:15	32.4	32.4	32.4	68	23.0	3	6	248	0.00	29.950 
21:20	32.2	32.2	32.2	68	22.8	3	6	248	0.00	29.950 
21:25	32.2	32.2	32.2	68	22.8	3	8	248	0.00	29.950 
21:30	32.2	27.3	32.2	65	21.8	5	12	270	0.00	29.958 
21:35	32.2	28.3	32.2	62	20.7	4	10	270	0.00	29.958 
21:40	32.1	27.2	32.1	62	20.6	5	11	270	0.00	29.958 
21:45	32.1	32.1	32.1	62	20.6	3	5	270	0.00	29.960 
21:50	32.1	28.2	32.1	62	20.6	4	9	270	0.00	29.960 
21:55	31.9	31.9	31.9	62	20.4	3	6	270	0.00	29.960 
22:00	31.9	31.9	31.9	62	20.4	3	7	270	0.00	29.961 
22:05	31.9	31.9	31.9	63	20.8	3	7	270	0.00	29.961 
22:10	31.9	28.0	31.9	63	20.8	4	11	270	0.00	29.961 
22:15	31.9	28.0	31.9	63	20.8	4	9	248	0.00	29.969 
22:20	31.9	31.9	31.9	64	21.1	3	6	270	0.00	29.969 
22:25	31.9	28.0	31.9	63	20.8	4	7	270	0.00	29.969 
22:30	31.8	31.8	31.8	64	21.0	3	5	248	0.00	29.972 
22:35	31.8	31.8	31.8	64	21.0	3	6	248	0.00	29.972 
22:40	31.8	31.8	31.8	64	21.0	2	5	248	0.00	29.972 
22:45	31.8	31.8	31.8	64	21.0	3	7	270	0.00	29.971 
22:50	31.6	31.6	31.6	64	20.8	3	10	248	0.00	29.971 
22:55	31.6	27.6	31.6	63	20.5	4	6	270	0.00	29.971 
23:00	31.6	27.6	31.6	64	20.8	4	9	270	0.00	29.972 
23:05	31.6	31.6	31.6	64	20.8	3	7	270	0.00	29.972 
23:10	31.5	31.5	31.5	64	20.7	3	6	270	0.00	29.972 
23:15	31.5	31.5	31.5	64	20.7	3	6	270	0.00	29.974 
23:20	31.5	31.5	31.5	64	20.7	3	6	270	0.00	29.974 
23:25	31.5	31.5	31.5	65	21.1	3	6	248	0.00	29.974 
23:30	31.3	31.3	31.3	65	20.9	2	6	270	0.00	29.976 
23:35	31.3	31.3	31.3	65	20.9	2	5	270	0.00	29.976 
23:40	31.3	31.3	31.3	65	20.9	3	7	248	0.00	29.976 
23:45	31.3	27.3	31.3	65	20.9	4	9	248	0.00	29.985 
23:50	31.2	31.2	31.2	66	21.2	2	5	270	0.00	29.985 
23:55	31.2	31.2	31.2	65	20.8	3	7	270	0.00	29.985 

CoCoRaHS
IN-AL-39
A2 Web Hosting
Creative Commons License
GoDaddy
search engine by freefind advanced

loaded 2018-11-17 18:56:25 • last modified 2010-11-18 10:43:29
Privacy PolicyDisclaimer
• wx.awcolley.com is powered by PmWiki v.2002016 •
• all content (unless otherwise noted) © 2018 A W Colley